Midland, Maryland
Current Conditions -  °F | °C
As of 8:34 PM on Friday 19 Dec 2014 (Local Time) from KCBE Reporting Station
Overcast Overcast  
Wind Chill: 30°   Ceiling: 3200
Heat Index: 34°   Visibility: 10mi
Dew Point: 21°   Wind: 5mph
Humidity: 60%   Direction: 340°NNW
Pressure: 30.3"   Gusts: NA
Location:  39.59°N, 78.95°W
Report Text: KCBE 200134Z AUTO 34004KT 10SM OVC032 01/M06 A3030 RMK AO1
Loading
Personal Weather Stations






























Interactive Weather Map New forecast layout! Learn more

10-Day Weather Forecast

Advertisements
Track Severe Weather on mobile